Flight Track Log - Related Links

Times and Time Zones

All times are in EDT time to prevent confusion due to time zone crossing. See the N8425N flight status page for this flight to view local times or setup timezone preferences in your user account.

Time Position Orientation Groundspeed Altitude Reporting Facility
EDT Latitude Longitude Course Direction KTS MPH feet Rate Location/Type
Sat 02:00:45 PM 45.0597 -122.7236 165° South 111 128 4,800  Level Seattle Center
Sat 02:01:46 PM 45.0306 -122.7122 165° South 110 127 5,500 590 Climbing Seattle Center
Sat 02:02:47 PM 44.9972 -122.6972 162° South 120 138 6,000 492 Climbing Seattle Center
Sat 02:03:48 PM 44.9603 -122.6814 163° South 132 152 6,500 443 Climbing Seattle Center
Sat 02:04:49 PM 44.9222 -122.6653 163° South 139 160 6,900 446 Climbing Seattle Center
Sat 02:05:49 PM 44.8844 -122.6617 176° South 137 158 7,400 446 Climbing Seattle Center
Sat 02:06:50 PM 44.8492 -122.6592 177° South 138 159 7,800 492 Climbing Seattle Center
Sat 02:07:51 PM 44.8117 -122.6542 175° South 137 158 8,400 639 Climbing Seattle Center
Sat 02:08:52 PM 44.7675 -122.6489 175° South 134 154 9,100 639 Climbing Seattle Center
Sat 02:09:53 PM 44.7317 -122.6450 176° South 130 150 9,700 590 Climbing Seattle Center
Sat 02:10:54 PM 44.6950 -122.6422 177° South 131 151 10,300 590 Climbing Seattle Center
Sat 02:11:55 PM 44.6586 -122.6386 176° South 131 151 10,900 541 Climbing Seattle Center
Sat 02:12:56 PM 44.6211 -122.6367 178° South 133 153 11,400 246 Climbing Seattle Center
Sat 02:13:57 PM 44.5767 -122.6344 178° South 149 171 11,400 49 Level Seattle Center
Sat 02:14:58 PM 44.5294 -122.6300 176° South 165 190 11,500 50 Climbing Seattle Center
Sat 02:15:58 PM 44.4850 -122.6233 174° South 161 185 11,500  Level Seattle Center
Sat 02:16:59 PM 44.4417 -122.6183 175° South 156 180 11,500  Level Seattle Center
Sat 02:18:00 PM 44.3978 -122.6153 177° South 157 181 11,500  Level Seattle Center
Sat 02:19:01 PM 44.3531 -122.6114 176° South 160 184 11,500  Level Seattle Center
Sat 02:20:02 PM 44.3103 -122.6072 176° South 157 181 11,500  Level Seattle Center
Sat 02:21:03 PM 44.2658 -122.6036 177° South 158 182 11,500  Level Seattle Center
Sat 02:22:04 PM 44.2219 -122.5994 176° South 158 182 11,500  Level Seattle Center
Sat 02:23:05 PM 44.1761 -122.5944 176° South 162 186 11,500  Level Seattle Center
Sat 02:24:06 PM 44.1328 -122.5914 177° South 159 183 11,500  Level Seattle Center
Sat 02:25:07 PM 44.0869 -122.5861 175° South 161 185 11,500  Level Seattle Center
Sat 02:26:08 PM 44.0325 -122.5825 177° South 164 189 11,500  Level Seattle Center
Sat 02:27:09 PM 43.9856 -122.5781 176° South 167 192 11,500  Level Seattle Center
Sat 02:28:10 PM 43.9408 -122.5728 175° South 163 188 11,500  Level Seattle Center
Sat 02:29:10 PM 43.8967 -122.5689 176° South 161 185 11,500  Level Seattle Center
Sat 02:30:11 PM 43.8528 -122.5653 177° South 158 182 11,500  Level Seattle Center
Sat 02:31:12 PM 43.8069 -122.5619 177° South 162 186 11,500  Level Seattle Center
Sat 02:32:13 PM 43.7619 -122.5558 174° South 163 188 11,500  Level Seattle Center
Sat 02:33:14 PM 43.7172 -122.5531 177° South 161 185 11,500  Level Seattle Center
Sat 02:34:15 PM 43.6714 -122.5486 176° South 164 189 11,500  Level Seattle Center
Sat 02:35:16 PM 43.6253 -122.5444 176° South 165 190 11,500  Level Seattle Center
Sat 02:36:17 PM 43.5806 -122.5397 176° South 162 186 11,500  Level Seattle Center
Sat 02:37:18 PM 43.5325 -122.5358 177° South 168 193 11,500  Level Seattle Center
Sat 02:38:18 PM 43.4903 -122.5319 176° South 159 183 11,500  Level Seattle Center
Sat 02:39:19 PM 43.4447 -122.5281 176° South 160 184 11,500  Level Seattle Center
Sat 02:40:20 PM 43.4000 -122.5228 175° South 162 186 11,500  Level Seattle Center
Sat 02:41:21 PM 43.3542 -122.5203 178° South 163 188 11,500  Level Seattle Center
Sat 02:42:22 PM 43.3078 -122.5144 175° South 166 191 11,500  Level Seattle Center
Sat 02:43:23 PM 43.2533 -122.5108 177° South 165 190 11,500  Level Seattle Center
Sat 02:44:23 PM 43.2075 -122.5081 177° South 164 189 11,500  Level Seattle Center
Sat 02:45:24 PM 43.1631 -122.5031 175° South 163 188 11,500  Level Seattle Center
Sat 02:46:25 PM 43.1183 -122.4972 175° South 162 186 11,500  Level Seattle Center
Sat 02:47:26 PM 43.0703 -122.4964 179° South 168 193 11,500  Level Seattle Center
Sat 02:48:27 PM 43.0253 -122.4925 176° South 163 188 11,500  Level Seattle Center
Sat 02:49:28 PM 42.9797 -122.4878 176° South 163 188 11,500  Level Seattle Center
Sat 02:50:29 PM 42.9333 -122.4831 176° South 168 193 11,500  Level Seattle Center
Sat 02:51:29 PM 42.8886 -122.4789 176° South 164 189 11,500  Level Seattle Center
Sat 02:52:30 PM 42.8422 -122.4742 176° South 169 194 11,500  Level Seattle Center
Sat 02:53:31 PM 42.7964 -122.4711 177° South 165 190 11,500  Level Seattle Center
Sat 02:54:32 PM 42.7478 -122.4683 178° South 172 198 11,500 49 Level Seattle Center
Sat 02:55:33 PM 42.7008 -122.4633 176° South 167 192 11,600 49 Climbing Seattle Center
Sat 02:56:34 PM 42.6553 -122.4578 175° South 165 190 11,600  Level Seattle Center
Sat 02:57:34 PM 42.6075 -122.4547 177° South 172 198 11,600  Level Seattle Center
Sat 02:58:35 PM 42.5606 -122.4481 174° South 170 196 11,600  Level Seattle Center
Sat 02:59:36 PM 42.5153 -122.4447 177° South 163 188 11,600  Level Seattle Center
Sat 03:00:37 PM 42.4692 -122.4403 176° South 165 190 11,600  Level Seattle Center
Sat 03:01:38 PM 42.4144 -122.4378 178° South 165 190 11,600  Level Seattle Center
Sat 03:02:39 PM 42.3714 -122.4333 176° South 157 181 11,600  Level Seattle Center
Sat 03:03:40 PM 42.3264 -122.4275 175° South 161 185 11,600  Level Seattle Center
Sat 03:04:41 PM 42.2814 -122.4233 176° South 163 188 11,600  Level Seattle Center
Sat 03:05:41 PM 42.2356 -122.4189 176° South 165 190 11,600  Level Seattle Center
Sat 03:06:42 PM 42.1881 -122.4142 176° South 170 196 11,600  Level Seattle Center
Sat 03:07:43 PM 42.1417 -122.4111 177° South 172 198 11,600  Level Seattle Center
Sat 03:08:44 PM 42.0967 -122.4083 177° South 164 189 11,600  Level Seattle Center
Sat 03:09:45 PM 42.0517 -122.4039 176° South 164 189 11,600  Level Seattle Center
Sat 03:10:46 PM 42.0047 -122.3978 174° South 170 196 11,600  Level Seattle Center
Sat 03:11:47 PM 41.9589 -122.3944 177° South 168 193 11,600  Level Seattle Center
Sat 03:12:48 PM 41.9128 -122.3900 176° South 167 192 11,600  Level Seattle Center
Sat 03:13:48 PM 41.8572 -122.3858 177° South 167 192 11,600  Level Seattle Center
Sat 03:14:49 PM 41.8111 -122.3808 175° South 170 196 11,600  Level Seattle Center
Sat 03:15:50 PM 41.7653 -122.3778 177° South 166 191 11,600  Level Seattle Center
Sat 03:16:51 PM 41.7192 -122.3728 175° South 164 189 11,600  Level Seattle Center
Sat 03:17:52 PM 41.6719 -122.3683 176° South 167 192 11,600  Level Seattle Center
Sat 03:18:53 PM 41.6264 -122.3642 176° South 166 191 11,600  Level Seattle Center
Sat 03:19:54 PM 41.5800 -122.3606 177° South 167 192 11,600  Level Seattle Center
Sat 03:20:55 PM 41.5331 -122.3564 176° South 168 193 11,600  Level Seattle Center
Sat 03:21:55 PM 41.4858 -122.3522 176° South 171 197 11,600  Level Seattle Center
Sat 03:22:56 PM 41.4394 -122.3483 176° South 168 193 11,600  Level Seattle Center
Sat 03:23:57 PM 41.3881 -122.3447 177° South 173 199 11,600 -97 Level Seattle Center
Sat 03:25:00 PM 41.3419 -122.3397 175° South 169 194 11,400 -48 Descending Oakland Center
Sat 03:26:01 PM 41.2947 -122.3367 177° South 170 196 11,500 49 Climbing Oakland Center
Sat 03:27:02 PM 41.2389 -122.3308 176° South 169 194 11,500  Level Oakland Center
Sat 03:28:04 PM 41.1911 -122.3261 176° South 172 198 11,500  Level Oakland Center
Sat 03:29:05 PM 41.1442 -122.3247 179° South 170 196 11,500  Level Oakland Center
Sat 03:30:07 PM 41.0978 -122.3217 177° South 169 194 11,500  Level Oakland Center
Sat 03:31:07 PM 41.0506 -122.3161 175° South 169 194 11,500  Level Oakland Center
Sat 03:32:09 PM 41.0031 -122.3114 176° South 170 196 11,500  Level Oakland Center
Sat 03:33:10 PM 40.9558 -122.3078 177° South 171 197 11,500  Level Oakland Center
Sat 03:34:11 PM 40.9100 -122.3042 177° South 168 193 11,500  Level Oakland Center
Sat 03:35:13 PM 40.8628 -122.3008 177° South 168 193 11,500  Level Oakland Center
Sat 03:36:14 PM 40.8164 -122.2969 176° South 168 193 11,500  Level Oakland Center
Sat 03:37:15 PM 40.7603 -122.2908 175° South 169 194 11,500  Level Oakland Center
Sat 03:38:17 PM 40.7144 -122.2867 176° South 166 191 11,500  Level Oakland Center
Sat 03:39:18 PM 40.6694 -122.2811 175° South 165 190 11,500  Level Oakland Center
Sat 03:40:19 PM 40.6267 -122.2553 155° Southeast 166 191 11,500  Level Oakland Center
Sat 03:41:21 PM 40.5861 -122.2242 150° Southeast 169 194 11,500  Level Oakland Center
Sat 03:42:22 PM 40.5444 -122.1942 151° Southeast 170 196 11,500  Level Oakland Center
Sat 03:43:23 PM 40.5039 -122.1656 152° Southeast 167 192 11,500  Level Oakland Center
Sat 03:44:24 PM 40.4622 -122.1392 154° Southeast 167 192 11,500  Level Oakland Center
Sat 03:45:26 PM 40.4214 -122.1114 153° Southeast 166 191 11,500  Level Oakland Center
Sat 03:46:27 PM 40.3797 -122.0842 154° Southeast 168 193 11,500  Level Oakland Center
Sat 03:47:28 PM 40.3294 -122.0514 154° Southeast 168 193 11,500  Level Oakland Center
Sat 03:48:30 PM 40.2886 -122.0231 152° Southeast 166 191 11,500  Level Oakland Center
Sat 03:49:31 PM 40.2472 -121.9964 154° Southeast 166 191 11,500  Level Oakland Center
Sat 03:50:32 PM 40.2058 -121.9706 155° Southeast 165 190 11,500  Level Oakland Center
Sat 03:51:34 PM 40.1647 -121.9431 153° Southeast 166 191 11,500  Level Oakland Center
Sat 03:52:35 PM 40.1242 -121.9164 153° Southeast 163 188 11,500  Level Oakland Center
Sat 03:53:36 PM 40.0825 -121.8906 155° Southeast 165 190 11,500  Level Oakland Center
Sat 03:54:38 PM 40.0411 -121.8636 154° Southeast 166 191 11,500  Level Oakland Center
Sat 03:55:39 PM 40.0008 -121.8364 153° Southeast 163 188 11,500  Level Oakland Center
Sat 03:56:40 PM 39.9603 -121.8114 155° Southeast 162 186 11,500  Level Oakland Center
Sat 03:57:41 PM 39.9192 -121.7844 153° Southeast 165 190 11,500  Level Oakland Center
Sat 03:58:42 PM 39.8700 -121.7517 153° Southeast 166 191 11,500  Level Oakland Center
Sat 03:59:44 PM 39.8286 -121.7258 154° Southeast 166 191 11,500  Level Oakland Center
Sat 04:00:45 PM 39.7872 -121.6983 153° Southeast 167 192 11,500  Level Oakland Center
Sat 04:01:46 PM 39.7467 -121.6711 153° Southeast 166 191 11,500  Level Oakland Center
Sat 04:02:47 PM 39.7058 -121.6456 154° Southeast 164 189 11,500  Level Oakland Center
Sat 04:03:49 PM 39.6647 -121.6200 154° Southeast 164 189 11,500  Level Oakland Center
Sat 04:04:50 PM 39.6231 -121.5919 153° Southeast 167 192 11,500  Level Oakland Center
Sat 04:05:51 PM 39.5817 -121.5658 154° Southeast 168 193 11,500  Level Oakland Center
Sat 04:06:52 PM 39.5406 -121.5394 154° Southeast 166 191 11,500  Level Oakland Center
Sat 04:07:53 PM 39.4994 -121.5125 153° Southeast 167 192 11,500  Level Oakland Center
Sat 04:08:55 PM 39.4514 -121.4839 155° Southeast 165 190 11,500  Level Oakland Center
Sat 04:09:56 PM 39.4100 -121.4556 152° Southeast 167 192 11,500  Level Oakland Center
Sat 04:10:57 PM 39.3675 -121.4308 156° South 167 192 11,500  Level Oakland Center
Sat 04:11:58 PM 39.3261 -121.4028 152° Southeast 168 193 11,500  Level Oakland Center
Sat 04:13:00 PM 39.2844 -121.3764 154° Southeast 168 193 11,500  Level Oakland Center
Sat 04:14:01 PM 39.2425 -121.3489 153° Southeast 169 194 11,500  Level Oakland Center
Sat 04:15:02 PM 39.2006 -121.3233 155° Southeast 168 193 11,500  Level Oakland Center
Sat 04:16:03 PM 39.1594 -121.2969 154° Southeast 165 190 11,500  Level Oakland Center
Sat 04:16:59 PM 39.1167 -121.2667 151° Southeast 170 196 11,500  Level Northern Cal TRACON
Sat 04:17:59 PM 39.0667 -121.2500 165° South 171 197 11,500  Level Northern Cal TRACON
Sat 04:18:59 PM 39.0333 -121.2167 142° Southeast 171 197 11,500  Level Northern Cal TRACON
Sat 04:20:00 PM 38.9833 -121.1833 153° Southeast 175 201 11,500  Level Northern Cal TRACON
Sat 04:21:00 PM 38.9500 -121.1667 159° South 171 197 11,500  Level Northern Cal TRACON
Sat 04:22:00 PM 38.9000 -121.1333 153° Southeast 170 196 11,500  Level Northern Cal TRACON
Sat 04:23:00 PM 38.8667 -121.1167 159° South 172 198 11,500  Level Northern Cal TRACON
Sat 04:24:00 PM 38.8167 -121.0833 153° Southeast 170 196 11,500  Level Northern Cal TRACON
Sat 04:25:00 PM 38.7667 -121.0500 153° Southeast 172 198 11,500  Level Northern Cal TRACON
Sat 04:26:00 PM 38.7333 -121.0333 159° South 172 198 11,500  Level Northern Cal TRACON
Sat 04:26:16 PM 38.7247 -121.0247 142° Southeast 175 201 11,500  Level Oakland Center
Sat 04:27:17 PM 38.6808 -120.9989 155° Southeast 173 199 11,500  Level Oakland Center
Sat 04:28:18 PM 38.6386 -120.9711 153° Southeast 172 198 11,500  Level Oakland Center
Sat 04:29:19 PM 38.5950 -120.9453 155° Southeast 172 198 11,500  Level Oakland Center
Sat 04:30:21 PM 38.5531 -120.9172 152° Southeast 171 197 11,500  Level Oakland Center
Sat 04:31:22 PM 38.5100 -120.8897 153° Southeast 171 197 11,500  Level Oakland Center
Sat 04:32:23 PM 38.4575 -120.8581 155° Southeast 174 200 11,500  Level Oakland Center
Sat 04:33:24 PM 38.4144 -120.8319 155° Southeast 171 197 11,500  Level Oakland Center
Sat 04:34:26 PM 38.3708 -120.8047 154° Southeast 173 199 11,500  Level Oakland Center
Sat 04:35:27 PM 38.3281 -120.7783 154° Southeast 172 198 11,500  Level Oakland Center
Sat 04:36:28 PM 38.2850 -120.7522 155° Southeast 172 198 11,500  Level Oakland Center
Sat 04:37:29 PM 38.2419 -120.7253 154° Southeast 172 198 11,500  Level Oakland Center
Sat 04:38:31 PM 38.1983 -120.7006 156° South 173 199 11,500  Level Oakland Center
Sat 04:39:32 PM 38.1558 -120.6733 153° Southeast 171 197 11,500  Level Oakland Center
Sat 04:40:33 PM 38.1133 -120.6467 154° Southeast 170 196 11,500  Level Oakland Center
Sat 04:41:34 PM 38.0697 -120.6211 155° Southeast 171 197 11,500  Level Oakland Center
Sat 04:42:35 PM 38.0278 -120.5950 154° Southeast 169 194 11,500  Level Oakland Center
Sat 04:43:37 PM 37.9858 -120.5683 153° Southeast 169 194 11,500  Level Oakland Center
Sat 04:44:38 PM 37.9353 -120.5372 154° Southeast 169 194 11,500  Level Oakland Center
Sat 04:45:39 PM 37.8925 -120.5094 153° Southeast 172 198 11,500  Level Oakland Center
Sat 04:46:40 PM 37.8503 -120.4831 154° Southeast 170 196 11,500  Level Oakland Center
Sat 04:47:42 PM 37.8056 -120.4567 155° Southeast 174 200 11,500  Level Oakland Center
Sat 04:48:43 PM 37.7631 -120.4308 154° Southeast 172 198 11,500  Level Oakland Center
Sat 04:49:44 PM 37.7200 -120.4042 154° Southeast 173 199 11,500  Level Oakland Center
Sat 04:50:46 PM 37.6756 -120.3786 156° South 173 199 11,500  Level Oakland Center
Sat 04:51:47 PM 37.6342 -120.3522 153° Southeast 170 196 11,500  Level Oakland Center
Sat 04:52:48 PM 37.5906 -120.3267 155° Southeast 172 198 11,500  Level Oakland Center
Sat 04:53:49 PM 37.5472 -120.3003 154° Southeast 172 198 11,500  Level Oakland Center
Sat 04:54:51 PM 37.4958 -120.2681 154° Southeast 172 198 11,500  Level Oakland Center
Sat 04:55:52 PM 37.4528 -120.2436 156° South 171 197 11,500  Level Oakland Center
Sat 04:56:53 PM 37.4092 -120.2175 155° Southeast 171 197 11,500  Level Oakland Center
Sat 04:57:55 PM 37.3678 -120.1908 153° Southeast 170 196 11,500  Level Oakland Center
Sat 04:58:56 PM 37.3208 -120.1694 160° South 178 205 11,500  Level Oakland Center
Sat 04:59:57 PM 37.2781 -120.1431 154° Southeast 171 197 11,500  Level Oakland Center
Sat 05:00:59 PM 37.2347 -120.1192 156° South 172 198 11,500  Level Oakland Center
Sat 05:02:00 PM 37.1919 -120.0936 155° Southeast 170 196 11,500  Level Oakland Center
Sat 05:03:01 PM 37.1500 -120.0675 154° Southeast 171 197 11,500  Level Oakland Center
Sat 05:04:03 PM 37.1072 -120.0422 155° Southeast 170 196 11,500  Level Oakland Center
Sat 05:05:04 PM 37.0622 -120.0153 154° Southeast 167 192 11,500  Level Oakland Center
Sat 05:06:05 PM 37.0197 -119.9894 154° Southeast 169 194 11,500  Level Oakland Center
Sat 05:07:07 PM 36.9772 -119.9647 155° Southeast 170 196 11,500  Level Oakland Center
Sat 05:08:08 PM 36.9342 -119.9389 154° Southeast 169 194 11,500  Level Oakland Center
Sat 05:09:09 PM 36.8836 -119.9083 154° Southeast 166 191 11,500  Level Oakland Center
Sat 05:10:10 PM 36.8386 -119.8836 156° South 173 199 11,500  Level Oakland Center
Sat 05:11:12 PM 36.7958 -119.8564 153° Southeast 173 199 11,500  Level Oakland Center
Sat 05:12:13 PM 36.7533 -119.8297 153° Southeast 171 197 11,500  Level Oakland Center
Sat 05:13:14 PM 36.7108 -119.8042 154° Southeast 169 194 11,500  Level Oakland Center
Sat 05:14:16 PM 36.6686 -119.7789 154° Southeast 169 194 11,500  Level Oakland Center
Sat 05:15:17 PM 36.6256 -119.7542 155° Southeast 170 196 11,500  Level Oakland Center
Sat 05:16:18 PM 36.5828 -119.7292 155° Southeast 170 196 11,500  Level Oakland Center
Sat 05:17:20 PM 36.5389 -119.7036 155° Southeast 172 198 11,500  Level Oakland Center
Sat 05:18:21 PM 36.4869 -119.6733 155° Southeast 172 198 11,500  Level Oakland Center
Sat 05:19:22 PM 36.4431 -119.6472 154° Southeast 173 199 11,500  Level Oakland Center
Sat 05:20:24 PM 36.3997 -119.6217 155° Southeast 172 198 11,500  Level Oakland Center
Sat 05:21:25 PM 36.3567 -119.5953 154° Southeast 172 198 11,500  Level Oakland Center
Sat 05:22:26 PM 36.3133 -119.5711 156° South 172 198 11,500  Level Oakland Center
Sat 05:23:28 PM 36.2708 -119.5453 154° Southeast 170 196 11,500  Level Oakland Center
Sat 05:24:29 PM 36.2278 -119.5197 154° Southeast 171 197 11,500  Level Oakland Center
Sat 05:25:30 PM 36.1847 -119.4961 156° South 169 194 11,500  Level Oakland Center
Sat 05:26:31 PM 36.1419 -119.4714 155° Southeast 171 197 11,500  Level Oakland Center
Sat 05:27:33 PM 36.1003 -119.4475 155° Southeast 166 191 11,500  Level Oakland Center
Sat 05:28:34 PM 36.0494 -119.4178 155° Southeast 168 193 11,500  Level Oakland Center
Sat 05:29:35 PM 36.0069 -119.3942 156° South 168 193 11,500  Level Oakland Center
Sat 05:30:37 PM 35.9642 -119.3731 158° South 166 191 11,500  Level Oakland Center
Sat 05:31:38 PM 35.9228 -119.3472 153° Southeast 165 190 11,500  Level Oakland Center
Sat 05:32:39 PM 35.8806 -119.3225 155° Southeast 167 192 11,500  Level Oakland Center
Sat 05:33:40 PM 35.8369 -119.2975 155° Southeast 170 196 11,500  Level Oakland Center
Sat 05:34:42 PM 35.7939 -119.2744 157° South 170 196 11,500  Level Oakland Center
Sat 05:35:43 PM 35.7525 -119.2508 155° Southeast 165 190 11,500  Level Oakland Center
Sat 05:36:44 PM 35.7094 -119.2267 155° Southeast 168 193 11,500  Level Oakland Center
Sat 05:37:46 PM 35.6669 -119.2017 154° Southeast 168 193 11,500  Level Oakland Center
Sat 05:38:47 PM 35.6164 -119.1703 153° Southeast 170 196 11,500  Level Oakland Center
Sat 05:39:22 PM 35.5989 -119.1617 158° South 172 198 11,500  Level Los Angeles Center
Sat 05:40:24 PM 35.5483 -119.1339 156° South 168 193 11,500  Level Los Angeles Center
Sat 05:41:26 PM 35.5061 -119.1083 154° Southeast 170 196 11,500  Level Los Angeles Center
Sat 05:42:28 PM 35.4661 -119.0800 150° Southeast 169 194 11,500  Level Los Angeles Center
Sat 05:43:30 PM 35.4417 -119.0311 122° Southeast 170 196 11,500  Level Los Angeles Center
Sat 05:44:32 PM 35.4181 -118.9844 122° Southeast 166 191 11,500  Level Los Angeles Center
Sat 05:45:34 PM 35.3914 -118.9361 124° Southeast 168 193 11,500  Level Los Angeles Center
Sat 05:46:36 PM 35.3572 -118.8822 128° Southeast 168 193 11,500  Level Los Angeles Center
Sat 05:47:38 PM 35.3297 -118.8372 127° Southeast 166 191 11,500  Level Los Angeles Center
Sat 05:48:40 PM 35.3028 -118.7919 126° Southeast 166 191 11,500  Level Los Angeles Center
Sat 05:49:54 PM 35.2772 -118.7467 125° Southeast 164 189 11,500  Level Los Angeles Center
Sat 05:50:57 PM 35.2458 -118.6942 126° Southeast 161 185 11,500  Level Los Angeles Center
Sat 05:51:59 PM 35.2197 -118.6503 126° Southeast 160 184 11,500  Level Los Angeles Center
Sat 05:53:01 PM 35.1878 -118.5986 127° Southeast 159 183 11,500  Level Los Angeles Center
Sat 05:54:03 PM 35.1625 -118.5547 125° Southeast 158 182 11,500  Level Los Angeles Center
Sat 05:55:04 PM 35.1411 -118.5194 127° Southeast 160 184 11,500  Level Los Angeles Center
Sat 05:56:07 PM 35.1083 -118.4689 128° Southeast 162 186 11,500  Level Los Angeles Center
Sat 05:57:09 PM 35.0819 -118.4225 125° Southeast 165 190 11,500  Level Los Angeles Center
Sat 05:58:11 PM 35.0550 -118.3775 126° Southeast 165 190 11,500  Level Los Angeles Center
Sat 05:59:13 PM 35.0236 -118.3258 127° Southeast 160 184 11,500  Level Los Angeles Center
Sat 06:00:15 PM 34.9972 -118.2822 126° Southeast 160 184 11,500  Level Los Angeles Center
Sat 06:01:17 PM 34.9719 -118.2406 127° Southeast 155 178 11,500  Level Los Angeles Center
Sat 06:02:31 PM 34.9450 -118.1983 128° Southeast 157 181 11,500  Level Los Angeles Center
Sat 06:03:33 PM 34.9128 -118.1394 124° Southeast 173 199 11,500  Level Los Angeles Center
Sat 06:04:35 PM 34.8781 -118.0836 127° Southeast 173 199 11,500  Level Los Angeles Center
Sat 06:05:37 PM 34.8492 -118.0367 127° Southeast 174 200 11,500  Level Los Angeles Center
Sat 06:06:39 PM 34.8186 -117.9903 129° Southeast 176 203 11,500  Level Los Angeles Center
Sat 06:07:41 PM 34.7908 -117.9444 126° Southeast 171 197 11,500  Level Los Angeles Center
Sat 06:08:43 PM 34.7639 -117.8992 126° Southeast 169 194 11,500  Level Los Angeles Center
Sat 06:09:45 PM 34.7397 -117.8539 123° Southeast 163 188 11,500  Level Los Angeles Center
Sat 06:10:47 PM 34.7094 -117.8069 128° Southeast 148 170 11,500  Level Los Angeles Center
Sat 06:11:48 PM 34.6839 -117.7661 127° Southeast 151 174 11,500  Level Los Angeles Center
Sat 06:12:50 PM 34.6589 -117.7239 126° Southeast 154 177 11,500  Level Los Angeles Center
Sat 06:14:04 PM 34.6319 -117.6825 128° Southeast 156 180 11,500  Level Los Angeles Center
Sat 06:15:07 PM 34.6072 -117.6286 119° Southeast 153 176 11,500  Level Los Angeles Center
Sat 06:16:08 PM 34.5947 -117.5906 112° Southeast 152 175 11,500  Level Los Angeles Center
Sat 06:17:10 PM 34.5739 -117.5228 110° East 153 176 11,500  Level Los Angeles Center
Sat 06:18:12 PM 34.5633 -117.4839 108° East 153 176 11,500  Level Los Angeles Center
Sat 06:19:14 PM 34.5458 -117.4239 109° East 155 178 11,500  Level Los Angeles Center
Sat 06:20:16 PM 34.5292 -117.3728 112° Southeast 162 186 11,500  Level Los Angeles Center
Sat 06:21:18 PM 34.5128 -117.3256 113° Southeast 159 183 11,500  Level Los Angeles Center
Sat 06:22:20 PM 34.4986 -117.2728 108° East 145 167 11,500  Level Los Angeles Center
Sat 06:23:22 PM 34.4889 -117.2253 104° East 143 165 11,500 -48 Level Los Angeles Center
Sat 06:24:24 PM 34.4767 -117.1778 107° East 146 168 11,400 -49 Descending Los Angeles Center
Sat 06:25:25 PM 34.4636 -117.1253 107° East 155 178 11,400 98 Level Los Angeles Center
Sat 06:26:27 PM 34.4453 -117.0789 116° Southeast 155 178 11,600 97 Climbing Los Angeles Center
Sat 06:27:29 PM 34.4269 -117.0325 116° Southeast 154 177 11,600  Level Los Angeles Center
Sat 06:28:31 PM 34.4069 -116.9756 113° Southeast 154 177 11,600  Level Los Angeles Center
Sat 06:29:33 PM 34.3947 -116.9281 107° East 150 173 11,600  Level Los Angeles Center
Sat 06:30:35 PM 34.3814 -116.8806 109° East 149 171 11,600  Level Los Angeles Center
Sat 06:31:37 PM 34.3614 -116.8358 118° Southeast 151 174 11,600  Level Los Angeles Center
Sat 06:32:38 PM 34.3372 -116.7950 126° Southeast 150 173 11,600  Level Los Angeles Center
Sat 06:33:40 PM 34.3125 -116.7519 125° Southeast 153 176 11,600  Level Los Angeles Center
Sat 06:34:42 PM 34.2822 -116.7108 132° Southeast 164 189 11,600 -97 Level Los Angeles Center
Sat 06:35:44 PM 34.2461 -116.6619 132° Southeast 166 191 11,400 -242 Descending Los Angeles Center
Sat 06:36:46 PM 34.2128 -116.6275 139° Southeast 161 185 11,100 -195 Descending Los Angeles Center
Sat 06:37:47 PM 34.1761 -116.5969 145° Southeast 161 185 11,000 -195 Descending Los Angeles Center
Sat 06:38:49 PM 34.1356 -116.5711 152° Southeast 163 188 10,700 -484 Descending Los Angeles Center
Sat 06:39:51 PM 34.0903 -116.5553 164° South 164 189 10,000 -823 Descending Los Angeles Center
Sat 06:40:53 PM 34.0525 -116.5353 156° South 152 175 9,000 -1,161 Descending Los Angeles Center
Sat 06:41:55 PM 34.0142 -116.5089 150° Southeast 149 171 7,600 -1,085 Descending Los Angeles Center
Sat 06:44:01 PM 33.9500 -116.4500 143° Southeast 145 167 5,600 -677 Descending Southern California TRACON
Sat 06:45:01 PM 33.9167 -116.4167 140° Southeast 153 176 5,500 -104 Descending Southern California TRACON
Sat 06:45:56 PM 33.8833 -116.3833 140° Southeast 152 175 5,400 -397 Descending Southern California TRACON
Sat 06:47:02 PM 33.8333 -116.4000 195° South 160 184 4,700 -571 Descending Southern California TRACON
Sat 06:48:02 PM 33.8000 -116.4000 180° South 141 162 4,200 -500 Descending Southern California TRACON
Sat 06:50:00 PM 33.7721 -116.3184 132° Southeast  Level FlightAware Approximate
Sat 06:57:00 PM 33.7484 -116.2748 132° Southeast  Level Estimated
Sat 06:58:00 PM 33.7484 -116.2748 132° Southeast  Level Estimated
Sat 06:59:00 PM 33.7484 -116.2748 132° Southeast  Level Estimated
Sat 07:00:00 PM 33.7484 -116.2748 132° Southeast  Level Estimated
Sat 07:01:00 PM 33.7484 -116.2748 132° Southeast  Level Estimated
Sat 07:02:00 PM 33.7484 -116.2748 132° Southeast  Level Estimated
Sat 07:03:00 PM 33.7484 -116.2748 132° Southeast  Level Estimated
Sat 07:04:00 PM 33.7484 -116.2748 132° Southeast  Level Estimated
Sat 07:05:00 PM 33.7484 -116.2748 132° Southeast  Level Estimated
Sat 07:06:00 PM 33.7484 -116.2748 132° Southeast  Level Estimated
Sat 07:07:00 PM 33.7484 -116.2748 132° Southeast  Level Estimated
Sat 07:08:00 PM 33.7484 -116.2748 132° Southeast  Level Estimated
Sat 07:09:00 PM 33.7484 -116.2748 132° Southeast  Level Estimated
Sat 07:10:00 PM 33.7484 -116.2748 132° Southeast  Level Estimated
Sat 07:11:00 PM 33.7484 -116.2748 132° Southeast  Level Estimated
Sat 07:12:00 PM 33.7484 -116.2748 132° Southeast  Level Estimated
Sat 07:13:00 PM 33.7484 -116.2748 132° Southeast  Level Estimated
Sat 07:14:00 PM 33.7484 -116.2748 132° Southeast  Level Estimated
Sat 07:15:00 PM 33.7484 -116.2748 132° Southeast  Level Estimated
Sat 07:16:00 PM 33.7484 -116.2748 132° Southeast  Level Estimated
Sat 07:17:00 PM 33.7484 -116.2748 132° Southeast  Level Estimated
Sat 07:18:00 PM 33.7484 -116.2748 132° Southeast  Level Estimated
Sat 07:19:00 PM 33.7484 -116.2748 132° Southeast  Level Estimated
Sat 07:20:00 PM 33.7484 -116.2748 132° Southeast  Level Estimated
Sat 07:21:00 PM 33.7484 -116.2748 132° Southeast  Level Estimated
Sat 07:22:00 PM 33.7484 -116.2748 132° Southeast  Level Estimated
Sat 07:23:00 PM 33.7484 -116.2748 132° Southeast  Level Estimated
Sat 07:24:00 PM 33.7484 -116.2748 132° Southeast  Level Estimated
Sat 07:25:00 PM 33.7484 -116.2748 132° Southeast  Level Estimated
Sat 07:26:00 PM 33.7484 -116.2748 132° Southeast  Level Estimated
Sat 07:27:00 PM 33.7484 -116.2748 132° Southeast  Level Estimated
Sat 07:28:00 PM 33.7484 -116.2748 132° Southeast  Level Estimated
Sat 07:29:00 PM 33.7484 -116.2748 132° Southeast  Level Estimated
Sat 07:30:00 PM 33.7484 -116.2748 132° Southeast  Level Estimated
Sat 07:31:00 PM 33.7484 -116.2748 132° Southeast  Level Estimated
Sat 07:32:00 PM 33.7484 -116.2748 132° Southeast  Level Estimated
Sat 07:33:00 PM 33.7484 -116.2748 132° Southeast  Level Estimated
Sat 07:34:00 PM 33.7484 -116.2748 132° Southeast  Level Estimated
Sat 07:35:00 PM 33.7484 -116.2748 132° Southeast  Level Estimated
Sat 07:36:00 PM 33.7484 -116.2748 132° Southeast  Level Estimated
Sat 07:37:00 PM 33.7484 -116.2748 132° Southeast  Level Estimated
Sat 07:38:00 PM 33.7484 -116.2748 132° Southeast  Level Estimated
Sat 07:39:00 PM 33.7484 -116.2748 132° Southeast  Level Estimated
Sat 07:40:00 PM 33.7484 -116.2748 132° Southeast  Level Estimated
Sat 07:41:00 PM 33.7484 -116.2748 132° Southeast  Level Estimated
Sat 07:42:00 PM 33.7484 -116.2748 132° Southeast  Level Estimated
Sat 07:43:00 PM 33.7484 -116.2748 132° Southeast  Level Estimated
Sat 07:44:00 PM 33.7484 -116.2748 132° Southeast  Level Estimated
Sat 07:45:00 PM 33.7484 -116.2748 132° Southeast  Level Estimated
Sat 07:46:00 PM 33.7484 -116.2748 132° Southeast  Level Estimated
Sat 07:47:00 PM 33.7484 -116.2748 132° Southeast  Level Estimated
Sat 07:48:00 PM 33.7484 -116.2748 132° Southeast  Level Estimated
Sat 07:49:00 PM 33.7484 -116.2748 132° Southeast  Level Estimated
Sat 07:50:00 PM 33.7484 -116.2748 132° Southeast  Level Estimated
Sat 07:51:00 PM 33.7484 -116.2748 132° Southeast  Level Estimated
Sat 07:52:00 PM 33.7484 -116.2748 132° Southeast  Level Estimated
Sat 07:53:00 PM 33.7484 -116.2748 132° Southeast  Level Estimated
Sat 07:54:00 PM 33.7484 -116.2748 132° Southeast  Level Estimated
Sat 07:55:00 PM 33.7484 -116.2748 132° Southeast  Level Estimated
Sat 07:56:00 PM 33.7484 -116.2748 132° Southeast  Level Estimated
Sat 07:57:00 PM 33.7484 -116.2748 132° Southeast  Level Estimated
Sat 07:58:00 PM 33.7484 -116.2748 132° Southeast  Level Estimated
Sat 07:59:00 PM 33.7484 -116.2748 132° Southeast  Level Estimated
Sat 08:00:00 PM 33.7484 -116.2748 132° Southeast  Level Estimated
Sat 08:01:00 PM 33.7484 -116.2748 132° Southeast  Level Estimated
Sat 08:02:00 PM 33.7484 -116.2748 132° Southeast  Level Estimated
Sat 08:03:00 PM 33.7484 -116.2748 132° Southeast  Level Estimated
Sat 08:04:00 PM 33.7484 -116.2748 132° Southeast  Level Estimated
Sat 08:05:00 PM 33.7484 -116.2748 132° Southeast  Level Estimated
Sat 08:06:00 PM 33.7484 -116.2748 132° Southeast  Level Estimated
Sat 08:07:00 PM 33.7484 -116.2748 132° Southeast  Level Estimated
Sat 08:08:00 PM 33.7484 -116.2748 132° Southeast  Level Estimated
Sat 08:09:00 PM 33.7484 -116.2748 132° Southeast  Level Estimated
Sat 08:10:00 PM 33.7484 -116.2748 132° Southeast  Level Estimated
Sat 08:11:00 PM 33.7484 -116.2748 132° Southeast  Level Estimated
Sat 08:12:00 PM 33.7484 -116.2748 132° Southeast  Level Estimated
Sat 08:13:00 PM 33.7484 -116.2748 132° Southeast  Level Estimated
Sat 08:14:00 PM 33.7484 -116.2748 132° Southeast  Level Estimated
Sat 08:15:00 PM 33.7484 -116.2748 132° Southeast  Level Estimated
Sat 08:16:00 PM 33.7484 -116.2748 132° Southeast  Level Estimated
Sat 08:17:00 PM 33.7484 -116.2748 132° Southeast  Level Estimated
Sat 08:18:00 PM 33.7484 -116.2748 132° Southeast  Level Estimated
Sat 08:19:00 PM 33.7484 -116.2748 132° Southeast  Level Estimated
Sat 08:20:00 PM 33.7484 -116.2748 132° Southeast  Level Estimated
Sat 08:21:00 PM 33.7484 -116.2748 132° Southeast  Level Estimated
Sat 08:22:00 PM 33.7484 -116.2748 132° Southeast  Level Estimated
Sat 08:23:00 PM 33.7484 -116.2748 132° Southeast  Level Estimated

Login

Don't have an account? Register now (free) for customized features, flight alerts, and more!